17°C Temp
3°C Dewpoint
39% Humidity
Temperature
8 KM/H
5 MPH
4 KTS
250°
West South
West

Wind Speed
Clear
Conditions
Pressure 1023.92 (hPa) - 30.24 (in)
Visibility 6.2 (mi) - 10.0 (km)

Current Conditions
LIMC
Location Malpensa 50(km)
Metar :LIMC 261650Z 25004KT CAVOK 17/03 Q1024 NOSIG
Fri 26th February 17:50 pm

Airport
  Metar Aviation API Data Provided by https://www.checkwx.com/ PHP scripts by weather34.com ©2021